Time,TemperatureF,DewpointF,PressureIn,WindDirection,WindDirectionDegrees,WindSpeedMPH,WindSpeedGustMPH,Humidity,HourlyPrecipIn,Conditions,Clouds,dailyrainin,SoftwareType,DateUTC
2013-10-27 00:01:00,35.1,22.6,28.61,North,9,0.0,0.0,60,0.00,,---,0.00,VWS V14.01,2013-10-27 05:01:00,
2013-10-27 00:06:00,34.9,22.4,28.61,North,9,0.0,0.0,60,0.00,,---,0.00,VWS V14.01,2013-10-27 05:06:00,
2013-10-27 00:11:00,34.7,22.6,28.61,North,9,0.0,0.0,61,0.00,,---,0.00,VWS V14.01,2013-10-27 05:11:00,
2013-10-27 00:17:00,34.5,22.5,28.61,North,9,0.0,0.0,61,0.00,,---,0.00,VWS V14.01,2013-10-27 05:17:00,
2013-10-27 00:22:00,34.5,22.5,28.61,North,9,0.0,0.0,61,0.00,,---,0.00,VWS V14.01,2013-10-27 05:22:00,
2013-10-27 00:27:00,34.3,22.7,28.61,North,9,0.0,0.0,62,0.00,,---,0.00,VWS V14.01,2013-10-27 05:27:00,
2013-10-27 00:32:00,34.2,22.5,28.61,North,9,0.0,0.0,62,0.00,,---,0.00,VWS V14.01,2013-10-27 05:32:00,
2013-10-27 00:37:00,34.2,22.9,28.61,North,9,0.0,0.0,63,0.00,,---,0.00,VWS V14.01,2013-10-27 05:37:00,
2013-10-27 00:42:00,34.2,22.9,28.61,North,9,0.0,0.0,63,0.00,,---,0.00,VWS V14.01,2013-10-27 05:42:00,
2013-10-27 00:47:00,34.0,22.7,28.61,North,9,0.0,0.0,63,0.00,,---,0.00,VWS V14.01,2013-10-27 05:47:00,
2013-10-27 00:52:00,34.0,23.1,28.61,North,9,0.0,0.0,64,0.00,,---,0.00,VWS V14.01,2013-10-27 05:52:00,
2013-10-27 00:57:00,33.8,22.9,28.61,North,9,0.0,0.0,64,0.00,,---,0.00,VWS V14.01,2013-10-27 05:57:00,
2013-10-27 01:02:00,33.6,22.8,28.61,North,9,0.0,0.0,64,0.00,,---,0.00,VWS V14.01,2013-10-27 06:02:00,
2013-10-27 01:07:00,33.6,23.1,28.61,North,9,0.0,0.0,65,0.00,,---,0.00,VWS V14.01,2013-10-27 06:07:00,
2013-10-27 01:13:00,33.3,22.8,28.61,North,9,0.0,0.0,65,0.00,,---,0.00,VWS V14.01,2013-10-27 06:13:00,
2013-10-27 01:18:00,33.3,22.8,28.61,North,9,0.0,0.0,65,0.00,,---,0.00,VWS V14.01,2013-10-27 06:18:00,
2013-10-27 01:23:00,33.3,22.8,28.61,North,9,0.0,0.0,65,0.00,,---,0.00,VWS V14.01,2013-10-27 06:23:00,
2013-10-27 01:28:00,33.1,22.6,28.59,North,9,0.0,0.0,65,0.00,,---,0.00,VWS V14.01,2013-10-27 06:28:00,
2013-10-27 01:33:00,33.1,23.0,28.59,North,9,0.0,0.0,66,0.00,,---,0.00,VWS V14.01,2013-10-27 06:33:00,
2013-10-27 01:38:00,32.9,22.8,28.59,North,9,0.0,0.0,66,0.00,,---,0.00,VWS V14.01,2013-10-27 06:38:00,
2013-10-27 01:43:00,32.7,23.0,28.61,North,9,0.0,0.0,67,0.00,,---,0.00,VWS V14.01,2013-10-27 06:43:00,
2013-10-27 01:48:00,32.7,23.0,28.61,North,9,0.0,0.0,67,0.00,,---,0.00,VWS V14.01,2013-10-27 06:48:00,
2013-10-27 01:53:00,32.7,23.0,28.61,North,9,0.0,0.0,67,0.00,,---,0.00,VWS V14.01,2013-10-27 06:53:00,
2013-10-27 01:59:00,32.5,22.8,28.59,North,9,0.0,0.0,67,0.00,,---,0.00,VWS V14.01,2013-10-27 06:59:00,
2013-10-27 02:04:00,32.5,23.2,28.59,North,9,0.0,0.0,68,0.00,,---,0.00,VWS V14.01,2013-10-27 07:04:00,
2013-10-27 02:09:00,32.5,23.2,28.59,North,9,0.0,0.0,68,0.00,,---,0.00,VWS V14.01,2013-10-27 07:09:00,
2013-10-27 02:14:00,32.4,23.0,28.59,North,9,0.0,0.0,68,0.00,,---,0.00,VWS V14.01,2013-10-27 07:14:00,
2013-10-27 02:19:00,32.2,23.2,28.59,North,9,0.0,0.0,69,0.00,,---,0.00,VWS V14.01,2013-10-27 07:19:00,
2013-10-27 02:24:00,32.0,23.0,28.59,North,9,0.0,0.0,69,0.00,,---,0.00,VWS V14.01,2013-10-27 07:24:00,
2013-10-27 02:29:00,31.8,22.8,28.59,North,9,0.0,0.0,69,0.00,,---,0.00,VWS V14.01,2013-10-27 07:29:00,
2013-10-27 02:34:00,31.8,22.8,28.59,North,9,0.0,0.0,69,0.00,,---,0.00,VWS V14.01,2013-10-27 07:34:00,
2013-10-27 02:39:00,31.8,22.8,28.59,North,9,0.0,0.0,69,0.00,,---,0.00,VWS V14.01,2013-10-27 07:39:00,
2013-10-27 02:44:00,31.6,23.0,28.59,North,9,0.0,0.0,70,0.00,,---,0.00,VWS V14.01,2013-10-27 07:44:00,
2013-10-27 02:49:00,31.6,23.0,28.59,North,9,0.0,0.0,70,0.00,,---,0.00,VWS V14.01,2013-10-27 07:49:00,
2013-10-27 02:55:00,31.6,23.0,28.59,North,9,0.0,0.0,70,0.00,,---,0.00,VWS V14.01,2013-10-27 07:55:00,
2013-10-27 03:00:00,31.5,22.8,28.59,North,9,0.0,0.0,70,0.00,,---,0.00,VWS V14.01,2013-10-27 08:00:00,
2013-10-27 03:05:00,31.3,22.6,28.59,North,9,0.0,0.0,70,0.00,,---,0.00,VWS V14.01,2013-10-27 08:05:00,
2013-10-27 03:10:00,31.1,22.5,28.59,North,9,0.0,0.0,70,0.00,,---,0.00,VWS V14.01,2013-10-27 08:10:00,
2013-10-27 03:15:00,31.1,22.5,28.59,North,9,0.0,0.0,70,0.00,,---,0.00,VWS V14.01,2013-10-27 08:15:00,
2013-10-27 03:20:00,30.9,22.3,28.59,North,9,0.0,0.0,70,0.00,,---,0.00,VWS V14.01,2013-10-27 08:20:00,
2013-10-27 03:25:00,30.7,22.5,28.56,North,9,0.0,0.0,71,0.00,,---,0.00,VWS V14.01,2013-10-27 08:25:00,
2013-10-27 03:30:00,30.6,22.3,28.56,North,9,0.0,0.0,71,0.00,,---,0.00,VWS V14.01,2013-10-27 08:30:00,
2013-10-27 03:35:00,30.4,22.1,28.56,North,9,0.0,0.0,71,0.00,,---,0.00,VWS V14.01,2013-10-27 08:35:00,
2013-10-27 03:40:00,30.4,22.1,28.56,North,9,0.0,0.0,71,0.00,,---,0.00,VWS V14.01,2013-10-27 08:40:00,
2013-10-27 03:46:00,30.2,21.9,28.56,North,9,0.0,0.0,71,0.00,,---,0.00,VWS V14.01,2013-10-27 08:46:00,
2013-10-27 03:51:00,30.2,22.3,28.56,North,9,0.0,0.0,72,0.00,,---,0.00,VWS V14.01,2013-10-27 08:51:00,
2013-10-27 03:56:00,30.0,22.1,28.56,North,9,0.0,0.0,72,0.00,,---,0.00,VWS V14.01,2013-10-27 08:56:00,
2013-10-27 04:01:00,30.0,22.1,28.56,North,9,0.0,0.0,72,0.00,,---,0.00,VWS V14.01,2013-10-27 09:01:00,
2013-10-27 04:06:00,29.8,21.9,28.56,North,9,0.0,0.0,72,0.00,,---,0.00,VWS V14.01,2013-10-27 09:06:00,
2013-10-27 04:11:00,29.7,21.8,28.56,North,9,0.0,0.0,72,0.00,,---,0.00,VWS V14.01,2013-10-27 09:11:00,
2013-10-27 04:16:00,29.7,21.8,28.56,North,9,0.0,0.0,72,0.00,,---,0.00,VWS V14.01,2013-10-27 09:16:00,
2013-10-27 04:21:00,29.7,21.8,28.56,North,9,0.0,0.0,72,0.00,,---,0.00,VWS V14.01,2013-10-27 09:21:00,
2013-10-27 04:26:00,29.7,21.8,28.56,North,9,0.0,0.0,72,0.00,,---,0.00,VWS V14.01,2013-10-27 09:26:00,
2013-10-27 04:31:00,29.7,22.1,28.56,North,9,0.0,0.0,73,0.00,,---,0.00,VWS V14.01,2013-10-27 09:31:00,
2013-10-27 04:36:00,29.7,22.1,28.56,North,9,0.0,0.0,73,0.00,,---,0.00,VWS V14.01,2013-10-27 09:36:00,
2013-10-27 04:42:00,29.7,22.1,28.56,North,9,0.0,0.0,73,0.00,,---,0.00,VWS V14.01,2013-10-27 09:42:00,
2013-10-27 04:47:00,29.5,21.9,28.56,North,9,0.0,0.0,73,0.00,,---,0.00,VWS V14.01,2013-10-27 09:47:00,
2013-10-27 04:52:00,29.5,21.9,28.56,North,9,0.0,0.0,73,0.00,,---,0.00,VWS V14.01,2013-10-27 09:52:00,
2013-10-27 04:57:00,29.5,21.9,28.56,North,9,0.0,0.0,73,0.00,,---,0.00,VWS V14.01,2013-10-27 09:57:00,
2013-10-27 05:02:00,29.5,21.9,28.56,North,9,0.0,0.0,73,0.00,,---,0.00,VWS V14.01,2013-10-27 10:02:00,
2013-10-27 05:07:00,29.5,22.2,28.56,North,9,0.0,0.0,74,0.00,,---,0.00,VWS V14.01,2013-10-27 10:07:00,
2013-10-27 05:12:00,29.5,22.2,28.56,North,9,0.0,0.0,74,0.00,,---,0.00,VWS V14.01,2013-10-27 10:12:00,
2013-10-27 05:17:00,29.5,22.2,28.56,North,9,0.0,0.0,74,0.00,,---,0.00,VWS V14.01,2013-10-27 10:17:00,
2013-10-27 05:22:00,29.7,22.4,28.56,North,9,0.0,0.0,74,0.00,,---,0.00,VWS V14.01,2013-10-27 10:22:00,
2013-10-27 05:27:00,29.7,22.4,28.56,North,9,0.0,0.0,74,0.00,,---,0.00,VWS V14.01,2013-10-27 10:27:00,
2013-10-27 05:33:00,29.7,22.4,28.56,North,9,0.0,0.0,74,0.00,,---,0.00,VWS V14.01,2013-10-27 10:33:00,
2013-10-27 05:38:00,29.5,22.2,28.56,North,9,0.0,0.0,74,0.00,,---,0.00,VWS V14.01,2013-10-27 10:38:00,
2013-10-27 05:43:00,29.5,22.2,28.56,North,9,0.0,0.0,74,0.00,,---,0.00,VWS V14.01,2013-10-27 10:43:00,
2013-10-27 05:48:00,29.5,22.2,28.56,North,9,0.0,0.0,74,0.00,,---,0.00,VWS V14.01,2013-10-27 10:48:00,
2013-10-27 05:53:00,29.5,22.5,28.56,North,9,0.0,0.0,75,0.00,,---,0.00,VWS V14.01,2013-10-27 10:53:00,
2013-10-27 05:58:00,29.5,22.5,28.56,North,9,0.0,0.0,75,0.00,,---,0.00,VWS V14.01,2013-10-27 10:58:00,
2013-10-27 06:03:00,29.5,22.5,28.56,North,9,0.0,0.0,75,0.00,,---,0.00,VWS V14.01,2013-10-27 11:03:00,
2013-10-27 06:08:00,29.3,22.4,28.56,North,9,0.0,0.0,75,0.00,,---,0.00,VWS V14.01,2013-10-27 11:08:00,
2013-10-27 06:13:00,29.3,22.4,28.56,North,9,0.0,0.0,75,0.00,,---,0.00,VWS V14.01,2013-10-27 11:13:00,
2013-10-27 06:19:00,29.5,22.5,28.56,North,9,0.0,0.0,75,0.00,,---,0.00,VWS V14.01,2013-10-27 11:19:00,
2013-10-27 06:24:00,29.5,22.5,28.56,North,9,0.0,0.0,75,0.00,,---,0.00,VWS V14.01,2013-10-27 11:24:00,
2013-10-27 06:29:00,29.5,22.5,28.53,North,9,0.0,0.0,75,0.00,,---,0.00,VWS V14.01,2013-10-27 11:29:00,
2013-10-27 06:34:00,29.5,22.5,28.53,North,9,0.0,0.0,75,0.00,,---,0.00,VWS V14.01,2013-10-27 11:34:00,
2013-10-27 06:39:00,29.5,22.5,28.53,North,9,0.0,0.0,75,0.00,,---,0.00,VWS V14.01,2013-10-27 11:39:00,
2013-10-27 06:44:00,29.7,23.0,28.53,North,9,0.0,0.0,76,0.00,,---,0.00,VWS V14.01,2013-10-27 11:44:00,
2013-10-27 06:49:00,29.7,23.0,28.53,North,9,0.0,0.0,76,0.00,,---,0.00,VWS V14.01,2013-10-27 11:49:00,
2013-10-27 06:54:00,29.7,23.0,28.53,North,9,0.0,0.0,76,0.00,,---,0.00,VWS V14.01,2013-10-27 11:54:00,
2013-10-27 06:59:00,29.7,23.0,28.53,North,9,0.0,0.0,76,0.00,,---,0.00,VWS V14.01,2013-10-27 11:59:00,
2013-10-27 07:04:00,29.7,23.0,28.53,North,9,0.0,0.0,76,0.00,,---,0.00,VWS V14.01,2013-10-27 12:04:00,
2013-10-27 07:10:00,29.8,23.2,28.53,North,9,0.0,0.0,76,0.00,,---,0.00,VWS V14.01,2013-10-27 12:10:00,
2013-10-27 07:15:00,29.8,23.2,28.53,North,9,0.0,0.0,76,0.00,,---,0.00,VWS V14.01,2013-10-27 12:15:00,
2013-10-27 07:20:00,30.0,23.4,28.53,North,9,0.0,0.0,76,0.00,,---,0.00,VWS V14.01,2013-10-27 12:20:00,
2013-10-27 07:25:00,30.0,23.4,28.53,North,9,0.0,0.0,76,0.00,,---,0.00,VWS V14.01,2013-10-27 12:25:00,
2013-10-27 07:30:00,30.2,23.6,28.53,North,9,0.0,0.0,76,0.00,,---,0.00,VWS V14.01,2013-10-27 12:30:00,
2013-10-27 07:32:00,30.2,23.6,28.53,North,9,0.0,0.0,76,0.00,,---,0.00,VWS V14.01,2013-10-27 12:32:00,
2013-10-27 07:37:00,30.2,23.6,28.53,North,9,0.0,0.0,76,0.00,,---,0.00,VWS V14.01,2013-10-27 12:37:00,
2013-10-27 07:42:00,30.2,23.6,28.50,North,9,0.0,0.0,76,0.00,,---,0.00,VWS V14.01,2013-10-27 12:42:00,
2013-10-27 07:47:00,30.0,23.4,28.50,North,9,0.0,0.0,76,0.00,,---,0.00,VWS V14.01,2013-10-27 12:47:00,
2013-10-27 07:52:00,30.0,23.4,28.50,North,9,0.0,0.0,76,0.00,,---,0.00,VWS V14.01,2013-10-27 12:52:00,
2013-10-27 07:57:00,30.0,23.4,28.50,North,9,0.0,0.0,76,0.00,,---,0.00,VWS V14.01,2013-10-27 12:57:00,
2013-10-27 08:02:00,30.0,23.4,28.50,North,9,0.0,0.0,76,0.00,,---,0.00,VWS V14.01,2013-10-27 13:02:00,
2013-10-27 08:07:00,30.2,23.6,28.50,North,9,0.0,0.0,76,0.00,,---,0.00,VWS V14.01,2013-10-27 13:07:00,
2013-10-27 08:13:00,30.2,23.6,28.50,North,9,0.0,0.0,76,0.00,,---,0.00,VWS V14.01,2013-10-27 13:13:00,
2013-10-27 08:18:00,30.4,23.7,28.50,North,9,0.0,0.0,76,0.00,,---,0.00,VWS V14.01,2013-10-27 13:18:00,
2013-10-27 08:23:00,30.7,24.1,28.50,North,9,0.0,0.0,76,0.00,,---,0.00,VWS V14.01,2013-10-27 13:23:00,
2013-10-27 08:28:00,31.1,24.4,28.50,North,9,0.0,0.0,76,0.00,,---,0.00,VWS V14.01,2013-10-27 13:28:00,
2013-10-27 08:33:00,31.5,24.8,28.50,North,9,0.0,0.0,76,0.00,,---,0.00,VWS V14.01,2013-10-27 13:33:00,
2013-10-27 08:38:00,31.8,25.1,28.50,North,9,0.0,0.0,76,0.00,,---,0.00,VWS V14.01,2013-10-27 13:38:00,
2013-10-27 08:43:00,32.2,25.5,28.53,North,9,0.0,0.0,76,0.00,,---,0.00,VWS V14.01,2013-10-27 13:43:00,
2013-10-27 08:48:00,32.5,25.8,28.53,North,9,0.0,0.0,76,0.00,,---,0.00,VWS V14.01,2013-10-27 13:48:00,
2013-10-27 08:53:00,32.7,26.0,28.53,North,9,0.0,0.0,76,0.00,,---,0.00,VWS V14.01,2013-10-27 13:53:00,
2013-10-27 08:59:00,33.3,26.5,28.53,North,9,0.0,0.0,76,0.00,,---,0.00,VWS V14.01,2013-10-27 13:59:00,
2013-10-27 09:04:00,33.6,27.2,28.53,North,9,0.0,0.0,77,0.00,,---,0.00,VWS V14.01,2013-10-27 14:04:00,
2013-10-27 09:09:00,34.0,27.2,28.53,North,9,0.0,0.0,76,0.00,,---,0.00,VWS V14.01,2013-10-27 14:09:00,
2013-10-27 09:14:00,34.7,27.9,28.53,North,9,0.0,0.0,76,0.00,,---,0.00,VWS V14.01,2013-10-27 14:14:00,
2013-10-27 09:19:00,35.2,28.8,28.53,North,9,0.0,0.0,77,0.00,,---,0.00,VWS V14.01,2013-10-27 14:19:00,
2013-10-27 09:24:00,36.0,29.1,28.50,NNE,12,0.0,0.0,76,0.00,,---,0.00,VWS V14.01,2013-10-27 14:24:00,
2013-10-27 09:29:00,36.9,30.3,28.50,ENE,59,0.0,0.0,77,0.00,,---,0.00,VWS V14.01,2013-10-27 14:29:00,
2013-10-27 09:34:00,37.9,31.1,28.50,South,176,2.7,4.0,76,0.00,,---,0.00,VWS V14.01,2013-10-27 14:34:00,
2013-10-27 09:39:00,39.0,32.1,28.50,South,174,0.0,4.0,76,0.00,,---,0.00,VWS V14.01,2013-10-27 14:39:00,
2013-10-27 09:44:00,40.1,32.5,28.50,ESE,119,0.0,4.5,74,0.00,,---,0.00,VWS V14.01,2013-10-27 14:44:00,
2013-10-27 09:50:00,41.4,33.0,28.50,SSE,149,0.0,4.5,72,0.00,,---,0.00,VWS V14.01,2013-10-27 14:50:00,
2013-10-27 09:55:00,42.4,33.4,28.50,SSW,205,0.0,4.5,70,0.00,,---,0.00,VWS V14.01,2013-10-27 14:55:00,
2013-10-27 10:00:00,43.5,33.7,28.50,SE,129,2.7,4.5,68,0.00,,---,0.00,VWS V14.01,2013-10-27 15:00:00,
2013-10-27 10:05:00,44.6,33.6,28.50,SSE,168,2.7,3.6,65,0.00,,---,0.00,VWS V14.01,2013-10-27 15:05:00,
2013-10-27 10:10:00,45.9,33.6,28.50,South,170,0.0,3.6,62,0.00,,---,0.00,VWS V14.01,2013-10-27 15:10:00,
2013-10-27 10:15:00,46.9,32.1,28.50,SSE,164,3.6,4.9,56,0.00,,---,0.00,VWS V14.01,2013-10-27 15:15:00,
2013-10-27 10:20:00,48.0,31.2,28.50,SE,145,0.0,4.9,52,0.00,,---,0.00,VWS V14.01,2013-10-27 15:20:00,
2013-10-27 10:25:00,49.1,30.3,28.50,SSW,195,5.4,5.4,48,0.00,,---,0.00,VWS V14.01,2013-10-27 15:25:00,
2013-10-27 10:30:00,50.4,27.6,28.50,SE,145,6.3,6.3,41,0.00,,---,0.00,VWS V14.01,2013-10-27 15:30:00,
2013-10-27 10:35:00,51.6,28.1,28.50,ESE,112,4.0,6.3,40,0.00,,---,0.00,VWS V14.01,2013-10-27 15:35:00,
2013-10-27 10:41:00,52.7,27.8,28.50,WSW,247,3.1,6.3,38,0.00,,---,0.00,VWS V14.01,2013-10-27 15:41:00,
2013-10-27 10:46:00,53.8,27.5,28.50,SSW,198,2.7,6.3,36,0.00,,---,0.00,VWS V14.01,2013-10-27 15:46:00,
2013-10-27 10:51:00,54.7,28.3,28.50,ESE,113,0.0,6.3,36,0.00,,---,0.00,VWS V14.01,2013-10-27 15:51:00,
2013-10-27 10:56:00,56.3,29.7,28.47,South,191,2.7,6.3,36,0.00,,---,0.00,VWS V14.01,2013-10-27 15:56:00,
2013-10-27 11:01:00,57.6,30.1,28.47,SSW,205,2.7,6.3,35,0.00,,---,0.00,VWS V14.01,2013-10-27 16:01:00,
2013-10-27 11:06:00,58.5,28.7,28.47,SW,215,5.4,8.1,32,0.00,,---,0.00,VWS V14.01,2013-10-27 16:06:00,
2013-10-27 11:11:00,59.2,29.4,28.47,SE,146,2.2,8.1,32,0.00,,---,0.00,VWS V14.01,2013-10-27 16:11:00,
2013-10-27 11:16:00,60.1,30.9,28.47,WNW,285,3.6,8.1,33,0.00,,---,0.00,VWS V14.01,2013-10-27 16:16:00,
2013-10-27 11:21:00,61.0,29.4,28.47,SE,143,2.2,8.1,30,0.00,,---,0.00,VWS V14.01,2013-10-27 16:21:00,
2013-10-27 11:26:00,61.3,28.0,28.47,SW,222,5.4,8.1,28,0.00,,---,0.00,VWS V14.01,2013-10-27 16:26:00,
2013-10-27 11:32:00,61.3,28.0,28.47,SE,136,5.4,11.0,28,0.00,,---,0.00,VWS V14.01,2013-10-27 16:32:00,
2013-10-27 11:37:00,61.7,27.4,28.47,SW,229,6.3,11.0,27,0.00,,---,0.00,VWS V14.01,2013-10-27 16:37:00,
2013-10-27 11:42:00,62.4,28.9,28.47,West,281,5.8,11.0,28,0.00,,---,0.00,VWS V14.01,2013-10-27 16:42:00,
2013-10-27 11:47:00,63.1,28.6,28.47,WSW,252,5.4,11.0,27,0.00,,---,0.00,VWS V14.01,2013-10-27 16:47:00,
2013-10-27 11:52:00,63.7,28.2,28.47,SW,224,4.0,11.0,26,0.00,,---,0.00,VWS V14.01,2013-10-27 16:52:00,
2013-10-27 11:57:00,64.2,28.6,28.47,SW,217,3.6,11.0,26,0.00,,---,0.00,VWS V14.01,2013-10-27 16:57:00,
2013-10-27 12:02:00,64.4,27.8,28.47,West,279,4.5,5.8,25,0.00,,---,0.00,VWS V14.01,2013-10-27 17:02:00,
2013-10-27 12:07:00,64.8,28.1,28.47,SW,218,2.7,8.3,25,0.00,,---,0.00,VWS V14.01,2013-10-27 17:07:00,
2013-10-27 12:12:00,65.5,28.8,28.47,South,169,5.8,8.3,25,0.00,,---,0.00,VWS V14.01,2013-10-27 17:12:00,
2013-10-27 12:17:00,66.0,30.2,28.47,South,171,2.7,8.3,26,0.00,,---,0.00,VWS V14.01,2013-10-27 17:17:00,
2013-10-27 12:23:00,66.9,30.0,28.47,ESE,119,3.1,8.3,25,0.00,,---,0.00,VWS V14.01,2013-10-27 17:23:00,
2013-10-27 12:28:00,67.3,30.3,28.44,SW,234,4.0,8.3,25,0.00,,---,0.00,VWS V14.01,2013-10-27 17:28:00,
2013-10-27 12:33:00,67.5,29.4,28.44,SSW,212,8.7,8.7,24,0.00,,---,0.00,VWS V14.01,2013-10-27 17:33:00,
2013-10-27 12:38:00,66.9,29.0,28.44,WSW,256,10.5,10.5,24,0.00,,---,0.00,VWS V14.01,2013-10-27 17:38:00,
2013-10-27 12:43:00,67.1,29.1,28.44,WNW,299,2.2,10.5,24,0.00,,---,0.00,VWS V14.01,2013-10-27 17:43:00,
2013-10-27 12:48:00,67.6,29.6,28.44,SW,218,5.8,10.5,24,0.00,,---,0.00,VWS V14.01,2013-10-27 17:48:00,
2013-10-27 12:53:00,68.0,29.9,28.44,SE,127,5.8,10.5,24,0.00,,---,0.00,VWS V14.01,2013-10-27 17:53:00,
2013-10-27 12:58:00,68.4,30.2,28.44,SSW,200,3.6,10.5,24,0.00,,---,0.00,VWS V14.01,2013-10-27 17:58:00,
2013-10-27 13:03:00,68.7,30.5,28.44,SE,134,3.1,6.3,24,0.00,,---,0.00,VWS V14.01,2013-10-27 18:03:00,
2013-10-27 13:09:00,69.3,29.9,28.44,SSW,192,5.4,9.6,23,0.00,,---,0.00,VWS V14.01,2013-10-27 18:09:00,
2013-10-27 13:14:00,69.3,29.9,28.44,WSW,237,3.1,9.6,23,0.00,,---,0.00,VWS V14.01,2013-10-27 18:14:00,
2013-10-27 13:19:00,69.4,30.1,28.44,WSW,238,6.3,9.6,23,0.00,,---,0.00,VWS V14.01,2013-10-27 18:19:00,
2013-10-27 13:24:00,69.4,30.1,28.41,WNW,282,5.4,10.1,23,0.00,,---,0.00,VWS V14.01,2013-10-27 18:24:00,
2013-10-27 13:29:00,69.8,30.4,28.41,SW,216,3.6,10.1,23,0.00,,---,0.00,VWS V14.01,2013-10-27 18:29:00,
2013-10-27 13:34:00,70.3,30.8,28.41,SW,234,4.9,10.1,23,0.00,,---,0.00,VWS V14.01,2013-10-27 18:34:00,
2013-10-27 13:39:00,70.5,31.0,28.41,West,265,3.1,10.1,23,0.00,,---,0.00,VWS V14.01,2013-10-27 18:39:00,
2013-10-27 13:44:00,70.7,31.1,28.41,SSW,209,2.2,10.1,23,0.00,,---,0.00,VWS V14.01,2013-10-27 18:44:00,
2013-10-27 13:49:00,71.1,31.4,28.41,SW,229,2.7,10.1,23,0.00,,---,0.00,VWS V14.01,2013-10-27 18:49:00,
2013-10-27 13:54:00,71.4,31.7,28.41,WSW,243,5.8,10.1,23,0.00,,---,0.00,VWS V14.01,2013-10-27 18:54:00,
2013-10-27 14:00:00,71.8,30.9,28.41,SSE,164,4.0,10.1,22,0.00,,---,0.00,VWS V14.01,2013-10-27 19:00:00,
2013-10-27 14:05:00,71.8,30.9,28.41,SW,226,5.4,8.7,22,0.00,,---,0.00,VWS V14.01,2013-10-27 19:05:00,
2013-10-27 14:10:00,71.4,31.7,28.38,SE,143,3.1,8.7,23,0.00,,---,0.00,VWS V14.01,2013-10-27 19:10:00,
2013-10-27 14:15:00,71.4,31.7,28.38,WNW,299,3.1,10.5,23,0.00,,---,0.00,VWS V14.01,2013-10-27 19:15:00,
2013-10-27 14:20:00,71.6,30.8,28.38,WSW,257,4.9,10.5,22,0.00,,---,0.00,VWS V14.01,2013-10-27 19:20:00,
2013-10-27 14:25:00,72.0,31.1,28.38,SE,125,2.7,10.5,22,0.00,,---,0.00,VWS V14.01,2013-10-27 19:25:00,
2013-10-27 14:30:00,72.3,31.4,28.38,SSW,194,3.1,10.5,22,0.00,,---,0.00,VWS V14.01,2013-10-27 19:30:00,
2013-10-27 14:35:00,72.3,31.4,28.38,SE,138,4.9,10.5,22,0.00,,---,0.00,VWS V14.01,2013-10-27 19:35:00,
2013-10-27 14:40:00,72.3,31.4,28.38,ESE,122,3.6,10.5,22,0.00,,---,0.00,VWS V14.01,2013-10-27 19:40:00,
2013-10-27 14:45:00,72.7,31.7,28.38,SE,127,5.8,10.5,22,0.00,,---,0.00,VWS V14.01,2013-10-27 19:45:00,
2013-10-27 14:51:00,72.9,31.8,28.38,East,82,5.8,10.5,22,0.00,,---,0.00,VWS V14.01,2013-10-27 19:51:00,
2013-10-27 14:56:00,72.7,31.7,28.35,South,183,3.6,10.5,22,0.00,,---,0.00,VWS V14.01,2013-10-27 19:56:00,
2013-10-27 15:01:00,72.9,31.8,28.35,ESE,110,4.9,5.8,22,0.00,,---,0.00,VWS V14.01,2013-10-27 20:01:00,
2013-10-27 15:06:00,73.0,32.0,28.35,East,90,2.7,6.3,22,0.00,,---,0.00,VWS V14.01,2013-10-27 20:06:00,
2013-10-27 15:11:00,73.4,32.3,28.35,ESE,120,4.0,6.3,22,0.00,,---,0.00,VWS V14.01,2013-10-27 20:11:00,
2013-10-27 15:16:00,73.6,32.4,28.35,East,101,4.0,8.3,22,0.00,,---,0.00,VWS V14.01,2013-10-27 20:16:00,
2013-10-27 15:21:00,73.6,31.3,28.35,SE,142,5.4,8.3,21,0.00,,---,0.00,VWS V14.01,2013-10-27 20:21:00,
2013-10-27 15:26:00,73.6,31.3,28.35,South,180,5.8,8.3,21,0.00,,---,0.00,VWS V14.01,2013-10-27 20:26:00,
2013-10-27 15:31:00,73.4,31.1,28.35,ESE,107,2.7,8.3,21,0.00,,---,0.00,VWS V14.01,2013-10-27 20:31:00,
2013-10-27 15:36:00,73.2,32.1,28.35,WNW,286,2.7,8.3,22,0.00,,---,0.00,VWS V14.01,2013-10-27 20:36:00,
2013-10-27 15:42:00,73.4,31.1,28.35,SE,127,3.1,8.3,21,0.00,,---,0.00,VWS V14.01,2013-10-27 20:42:00,
2013-10-27 15:47:00,73.2,32.1,28.35,SW,227,3.1,8.3,22,0.00,,---,0.00,VWS V14.01,2013-10-27 20:47:00,
2013-10-27 15:52:00,73.0,32.0,28.35,ESE,123,3.1,8.3,22,0.00,,---,0.00,VWS V14.01,2013-10-27 20:52:00,
2013-10-27 15:57:00,72.9,31.8,28.35,South,170,6.3,8.3,22,0.00,,---,0.00,VWS V14.01,2013-10-27 20:57:00,
2013-10-27 16:02:00,72.7,31.7,28.35,West,273,3.6,6.3,22,0.00,,---,0.00,VWS V14.01,2013-10-27 21:02:00,
2013-10-27 16:07:00,72.7,31.7,28.35,SE,133,6.3,7.6,22,0.00,,---,0.00,VWS V14.01,2013-10-27 21:07:00,
2013-10-27 16:12:00,72.7,31.7,28.35,WSW,248,6.3,7.6,22,0.00,,---,0.00,VWS V14.01,2013-10-27 21:12:00,
2013-10-27 16:17:00,72.9,31.8,28.35,ESE,104,5.8,7.6,22,0.00,,---,0.00,VWS V14.01,2013-10-27 21:17:00,
2013-10-27 16:22:00,72.7,31.7,28.35,ESE,102,3.6,7.6,22,0.00,,---,0.00,VWS V14.01,2013-10-27 21:22:00,
2013-10-27 16:27:00,72.7,31.7,28.35,SE,129,3.6,7.6,22,0.00,,---,0.00,VWS V14.01,2013-10-27 21:27:00,
2013-10-27 16:33:00,72.3,31.4,28.35,SSE,147,3.1,8.7,22,0.00,,---,0.00,VWS V14.01,2013-10-27 21:33:00,
2013-10-27 16:38:00,72.3,31.4,28.35,ESE,109,4.0,8.7,22,0.00,,---,0.00,VWS V14.01,2013-10-27 21:38:00,
2013-10-27 16:43:00,72.3,31.4,28.35,ENE,74,3.1,8.7,22,0.00,,---,0.00,VWS V14.01,2013-10-27 21:43:00,
2013-10-27 16:48:00,72.1,31.2,28.35,North,353,4.0,8.7,22,0.00,,---,0.00,VWS V14.01,2013-10-27 21:48:00,
2013-10-27 16:53:00,72.0,31.1,28.35,SE,137,2.7,8.7,22,0.00,,---,0.00,VWS V14.01,2013-10-27 21:53:00,
2013-10-27 16:58:00,71.6,30.8,28.32,SSE,147,3.1,8.7,22,0.00,,---,0.00,VWS V14.01,2013-10-27 21:58:00,
2013-10-27 17:03:00,71.2,30.5,28.32,WSW,248,5.4,5.4,22,0.00,,---,0.00,VWS V14.01,2013-10-27 22:03:00,
2013-10-27 17:08:00,70.7,30.0,28.32,SE,143,3.1,6.3,22,0.00,,---,0.00,VWS V14.01,2013-10-27 22:08:00,
2013-10-27 17:13:00,70.0,29.4,28.32,South,178,7.2,7.2,22,0.00,,---,0.00,VWS V14.01,2013-10-27 22:13:00,
2013-10-27 17:19:00,69.4,30.1,28.32,SSE,164,4.0,7.6,23,0.00,,---,0.00,VWS V14.01,2013-10-27 22:19:00,
2013-10-27 17:24:00,68.9,29.6,28.32,SE,128,4.9,7.6,23,0.00,,---,0.00,VWS V14.01,2013-10-27 22:24:00,
2013-10-27 17:29:00,68.5,29.3,28.32,SE,146,2.7,7.6,23,0.00,,---,0.00,VWS V14.01,2013-10-27 22:29:00,
2013-10-27 17:34:00,68.2,29.0,28.32,ENE,58,3.6,7.6,23,0.00,,---,0.00,VWS V14.01,2013-10-27 22:34:00,
2013-10-27 17:39:00,67.8,28.7,28.32,South,185,4.0,7.6,23,0.00,,---,0.00,VWS V14.01,2013-10-27 22:39:00,
2013-10-27 17:44:00,67.5,29.4,28.32,SSE,163,6.3,7.6,24,0.00,,---,0.00,VWS V14.01,2013-10-27 22:44:00,
2013-10-27 17:49:00,67.1,29.1,28.32,SSE,150,4.0,7.6,24,0.00,,---,0.00,VWS V14.01,2013-10-27 22:49:00,
2013-10-27 17:54:00,66.7,28.8,28.32,SE,136,2.7,7.6,24,0.00,,---,0.00,VWS V14.01,2013-10-27 22:54:00,
2013-10-27 17:59:00,66.4,28.5,28.32,ESE,110,3.1,7.6,24,0.00,,---,0.00,VWS V14.01,2013-10-27 22:59:00,
2013-10-27 18:04:00,66.0,28.2,28.32,South,182,4.9,5.8,24,0.00,,---,0.00,VWS V14.01,2013-10-27 23:04:00,
2013-10-27 18:10:00,65.7,27.9,28.32,South,185,2.7,6.3,24,0.00,,---,0.00,VWS V14.01,2013-10-27 23:10:00,
2013-10-27 18:15:00,65.1,27.5,28.32,SE,133,2.7,6.3,24,0.00,,---,0.00,VWS V14.01,2013-10-27 23:15:00,
2013-10-27 18:20:00,64.8,27.2,28.32,SSE,155,4.0,6.3,24,0.00,,---,0.00,VWS V14.01,2013-10-27 23:20:00,
2013-10-27 18:25:00,64.2,27.7,28.32,SSE,152,2.7,6.3,25,0.00,,---,0.00,VWS V14.01,2013-10-27 23:25:00,
2013-10-27 18:30:00,63.7,27.2,28.32,SSE,152,0.0,6.3,25,0.00,,---,0.00,VWS V14.01,2013-10-27 23:30:00,
2013-10-27 18:35:00,63.3,26.9,28.32,SE,139,2.7,6.3,25,0.00,,---,0.00,VWS V14.01,2013-10-27 23:35:00,
2013-10-27 18:40:00,63.0,26.6,28.32,SE,142,2.7,6.3,25,0.00,,---,0.00,VWS V14.01,2013-10-27 23:40:00,
2013-10-27 18:45:00,62.4,27.1,28.32,SSE,162,3.1,6.3,26,0.00,,---,0.00,VWS V14.01,2013-10-27 23:45:00,
2013-10-27 18:50:00,61.9,26.6,28.32,SE,137,2.7,6.3,26,0.00,,---,0.00,VWS V14.01,2013-10-27 23:50:00,
2013-10-27 18:56:00,61.7,26.5,28.32,SE,125,3.1,6.3,26,0.00,,---,0.00,VWS V14.01,2013-10-27 23:56:00,
2013-10-27 19:01:00,61.3,26.2,28.32,SSE,164,2.7,5.4,26,0.00,,---,0.00,VWS V14.01,2013-10-28 00:01:00,
2013-10-27 19:06:00,61.0,25.9,28.32,SE,126,3.1,5.4,26,0.00,,---,0.00,VWS V14.01,2013-10-28 00:06:00,
2013-10-27 19:11:00,60.4,25.4,28.32,SSE,155,5.4,5.8,26,0.00,,---,0.00,VWS V14.01,2013-10-28 00:11:00,
2013-10-27 19:16:00,60.3,25.3,28.32,South,175,3.1,5.8,26,0.00,,---,0.00,VWS V14.01,2013-10-28 00:16:00,
2013-10-27 19:21:00,60.1,25.1,28.32,SSE,159,3.1,5.8,26,0.00,,---,0.00,VWS V14.01,2013-10-28 00:21:00,
2013-10-27 19:26:00,59.7,24.8,28.35,SE,133,0.0,5.8,26,0.00,,---,0.00,VWS V14.01,2013-10-28 00:26:00,
2013-10-27 19:31:00,59.2,24.3,28.35,SSW,200,2.2,5.8,26,0.00,,---,0.00,VWS V14.01,2013-10-28 00:31:00,
2013-10-27 19:36:00,58.8,24.9,28.35,SE,146,2.7,5.8,27,0.00,,---,0.00,VWS V14.01,2013-10-28 00:36:00,
2013-10-27 19:41:00,58.5,24.6,28.35,SE,144,3.1,5.8,27,0.00,,---,0.00,VWS V14.01,2013-10-28 00:41:00,
2013-10-27 19:47:00,57.9,24.2,28.35,SE,144,0.0,5.8,27,0.00,,---,0.00,VWS V14.01,2013-10-28 00:47:00,
2013-10-27 19:52:00,57.6,23.9,28.35,SE,144,0.0,5.8,27,0.00,,---,0.00,VWS V14.01,2013-10-28 00:52:00,
2013-10-27 19:57:00,57.2,23.5,28.35,SE,144,0.0,5.8,27,0.00,,---,0.00,VWS V14.01,2013-10-28 00:57:00,
2013-10-27 20:02:00,56.5,23.8,28.35,SE,144,0.0,0.0,28,0.00,,---,0.00,VWS V14.01,2013-10-28 01:02:00,
2013-10-27 20:07:00,55.9,24.2,28.35,SE,144,0.0,0.0,29,0.00,,---,0.00,VWS V14.01,2013-10-28 01:07:00,
2013-10-27 20:12:00,55.4,23.7,28.35,SE,144,0.0,0.0,29,0.00,,---,0.00,VWS V14.01,2013-10-28 01:12:00,
2013-10-27 20:17:00,54.9,24.0,28.35,SE,144,0.0,0.0,30,0.00,,---,0.00,VWS V14.01,2013-10-28 01:17:00,
2013-10-27 20:22:00,54.5,23.7,28.35,SE,144,0.0,0.0,30,0.00,,---,0.00,VWS V14.01,2013-10-28 01:22:00,
2013-10-27 20:27:00,54.1,24.2,28.35,SE,144,0.0,0.0,31,0.00,,---,0.00,VWS V14.01,2013-10-28 01:27:00,
2013-10-27 20:32:00,53.6,23.7,28.35,SE,144,0.0,0.0,31,0.00,,---,0.00,VWS V14.01,2013-10-28 01:32:00,
2013-10-27 20:38:00,53.1,24.0,28.35,SE,144,0.0,0.0,32,0.00,,---,0.00,VWS V14.01,2013-10-28 01:38:00,
2013-10-27 20:43:00,52.7,24.4,28.35,SE,144,0.0,0.0,33,0.00,,---,0.00,VWS V14.01,2013-10-28 01:43:00,
2013-10-27 20:48:00,52.3,24.8,28.35,SE,144,0.0,0.0,34,0.00,,---,0.00,VWS V14.01,2013-10-28 01:48:00,
2013-10-27 20:53:00,52.2,26.0,28.35,SE,144,0.0,0.0,36,0.00,,---,0.00,VWS V14.01,2013-10-28 01:53:00,
2013-10-27 20:58:00,52.2,26.0,28.35,SE,143,3.1,4.0,36,0.00,,---,0.00,VWS V14.01,2013-10-28 01:58:00,
2013-10-27 21:03:00,52.3,26.2,28.35,SE,143,3.1,3.6,36,0.00,,---,0.00,VWS V14.01,2013-10-28 02:03:00,
2013-10-27 21:08:00,52.3,26.2,28.35,SE,144,3.1,3.6,36,0.00,,---,0.00,VWS V14.01,2013-10-28 02:08:00,
2013-10-27 21:13:00,52.5,26.4,28.35,SE,143,0.0,3.6,36,0.00,,---,0.00,VWS V14.01,2013-10-28 02:13:00,
2013-10-27 21:18:00,52.3,26.2,28.35,SE,144,2.2,3.6,36,0.00,,---,0.00,VWS V14.01,2013-10-28 02:18:00,
2013-10-27 21:23:00,52.3,26.2,28.35,SE,144,2.2,3.6,36,0.00,,---,0.00,VWS V14.01,2013-10-28 02:23:00,
2013-10-27 21:29:00,52.2,26.0,28.35,SE,144,2.7,3.6,36,0.00,,---,0.00,VWS V14.01,2013-10-28 02:29:00,
2013-10-27 21:34:00,52.0,25.9,28.35,SE,144,2.7,3.6,36,0.00,,---,0.00,VWS V14.01,2013-10-28 02:34:00,
2013-10-27 21:39:00,51.8,26.4,28.35,SE,144,3.1,3.6,37,0.00,,---,0.00,VWS V14.01,2013-10-28 02:39:00,
2013-10-27 21:44:00,51.8,26.4,28.35,SE,143,2.7,3.6,37,0.00,,---,0.00,VWS V14.01,2013-10-28 02:44:00,
2013-10-27 21:49:00,51.6,26.2,28.35,SE,143,2.7,3.6,37,0.00,,---,0.00,VWS V14.01,2013-10-28 02:49:00,
2013-10-27 21:54:00,51.6,26.2,28.35,SE,137,2.7,3.6,37,0.00,,---,0.00,VWS V14.01,2013-10-28 02:54:00,
2013-10-27 21:59:00,51.6,26.2,28.35,SE,137,3.1,3.6,37,0.00,,---,0.00,VWS V14.01,2013-10-28 02:59:00,
2013-10-27 22:04:00,51.4,26.7,28.35,SE,137,2.2,3.1,38,0.00,,---,0.00,VWS V14.01,2013-10-28 03:04:00,
2013-10-27 22:09:00,51.3,26.5,28.35,SE,137,2.7,3.1,38,0.00,,---,0.00,VWS V14.01,2013-10-28 03:09:00,
2013-10-27 22:14:00,50.9,26.2,28.35,SE,137,0.0,3.1,38,0.00,,---,0.00,VWS V14.01,2013-10-28 03:14:00,
2013-10-27 22:20:00,50.5,25.9,28.35,SE,137,0.0,3.1,38,0.00,,---,0.00,VWS V14.01,2013-10-28 03:20:00,
2013-10-27 22:25:00,50.4,25.7,28.35,SE,137,0.0,3.1,38,0.00,,---,0.00,VWS V14.01,2013-10-28 03:25:00,
2013-10-27 22:30:00,50.4,25.7,28.35,SE,137,0.0,3.1,38,0.00,,---,0.00,VWS V14.01,2013-10-28 03:30:00,
2013-10-27 22:35:00,50.2,25.6,28.35,SE,136,3.1,3.1,38,0.00,,---,0.00,VWS V14.01,2013-10-28 03:35:00,
2013-10-27 22:40:00,50.4,25.7,28.35,SE,138,3.6,3.6,38,0.00,,---,0.00,VWS V14.01,2013-10-28 03:40:00,
2013-10-27 22:45:00,50.5,26.5,28.35,SE,142,3.1,4.0,39,0.00,,---,0.00,VWS V14.01,2013-10-28 03:45:00,
2013-10-27 22:50:00,50.9,26.2,28.35,SE,126,4.0,4.0,38,0.00,,---,0.00,VWS V14.01,2013-10-28 03:50:00,
2013-10-27 22:55:00,51.1,26.4,28.35,SSE,159,3.1,4.0,38,0.00,,---,0.00,VWS V14.01,2013-10-28 03:55:00,
2013-10-27 23:00:00,51.3,26.5,28.35,ESE,118,3.1,5.8,38,0.00,,---,0.00,VWS V14.01,2013-10-28 04:00:00,
2013-10-27 23:01:00,51.3,26.5,28.35,SE,137,3.6,5.8,38,0.00,,---,0.00,VWS V14.01,2013-10-28 04:01:00,
2013-10-27 23:02:00,51.3,26.5,28.35,SE,137,2.7,5.8,38,0.00,,---,0.00,VWS V14.01,2013-10-28 04:02:00,
2013-10-27 23:03:00,51.3,26.5,28.35,SE,124,5.4,5.8,38,0.00,,---,0.00,VWS V14.01,2013-10-28 04:03:00,
2013-10-27 23:05:00,51.4,26.7,28.35,SE,125,3.1,5.8,38,0.00,,---,0.00,VWS V14.01,2013-10-28 04:05:00,
2013-10-27 23:10:00,51.6,26.9,28.35,SSE,154,2.7,5.8,38,0.00,,---,0.00,VWS V14.01,2013-10-28 04:10:00,
2013-10-27 23:15:00,51.6,26.9,28.35,SE,137,3.1,5.8,38,0.00,,---,0.00,VWS V14.01,2013-10-28 04:15:00,
2013-10-27 23:20:00,51.8,26.4,28.35,ESE,122,2.7,5.8,37,0.00,,---,0.00,VWS V14.01,2013-10-28 04:20:00,
2013-10-27 23:25:00,51.8,26.4,28.35,SSE,163,3.1,5.8,37,0.00,,---,0.00,VWS V14.01,2013-10-28 04:25:00,
2013-10-27 23:30:00,52.0,26.5,28.35,ESE,119,2.7,5.8,37,0.00,,---,0.00,VWS V14.01,2013-10-28 04:30:00,
2013-10-27 23:35:00,52.0,26.5,28.35,SE,136,3.1,5.8,37,0.00,,---,0.00,VWS V14.01,2013-10-28 04:35:00,
2013-10-27 23:40:00,52.0,26.5,28.35,South,169,2.7,5.8,37,0.00,,---,0.00,VWS V14.01,2013-10-28 04:40:00,
2013-10-27 23:46:00,52.0,26.5,28.35,SSE,166,2.7,5.8,37,0.00,,---,0.00,VWS V14.01,2013-10-28 04:46:00,
2013-10-27 23:51:00,51.8,26.4,28.35,SE,135,0.0,5.8,37,0.00,,---,0.00,VWS V14.01,2013-10-28 04:51:00,
2013-10-27 23:56:00,51.6,26.2,28.35,SE,135,2.7,5.8,37,0.00,,---,0.00,VWS V14.01,2013-10-28 04:56:00,